createdAt,value
2022-11-03T00:00:57.636Z,73.70
2022-11-03T00:04:01.107Z,73.70
2022-11-03T00:07:04.818Z,73.70
2022-11-03T00:10:08.952Z,73.70
2022-11-03T00:13:14.651Z,73.70
2022-11-03T00:32:31.562Z,73.70
2022-11-03T00:35:35.344Z,73.70
2022-11-03T00:38:38.929Z,73.70
2022-11-03T00:41:42.451Z,73.70
2022-11-03T00:44:45.927Z,73.80
2022-11-03T00:48:04.229Z,73.70
2022-11-03T00:51:08.852Z,73.70
2022-11-03T00:54:14.958Z,74.30
2022-11-03T00:57:18.727Z,73.70
2022-11-03T01:00:22.341Z,74.40
2022-11-03T01:03:27.757Z,73.80
2022-11-03T01:06:44.520Z,73.80
2022-11-03T01:09:47.958Z,73.80
2022-11-03T01:12:51.446Z,73.70
2022-11-03T01:15:58.166Z,73.80
2022-11-03T01:19:03.572Z,73.80
2022-11-03T01:22:10.618Z,73.80
2022-11-03T01:25:14.794Z,73.70
2022-11-03T01:28:18.225Z,73.70
2022-11-03T01:31:23.099Z,73.70
2022-11-03T01:34:28.500Z,73.70
2022-11-03T01:37:31.964Z,73.80
2022-11-03T01:40:35.387Z,73.70
2022-11-03T01:43:39.542Z,73.70
2022-11-03T01:46:55.389Z,73.70
2022-11-03T01:50:02.918Z,73.70
2022-11-03T01:53:06.838Z,73.70
2022-11-03T01:56:11.156Z,73.80
2022-11-03T01:59:14.834Z,73.80
2022-11-03T02:06:06.646Z,73.70
2022-11-03T02:09:10.890Z,73.80
2022-11-03T02:12:16.070Z,74.40
2022-11-03T02:15:21.446Z,73.80
2022-11-03T02:18:27.430Z,73.70
2022-11-03T02:21:37.165Z,73.80
2022-11-03T02:24:49.847Z,73.80
2022-11-03T02:27:59.590Z,73.80
2022-11-03T02:31:09.745Z,73.80
2022-11-03T02:34:16.055Z,73.80
2022-11-03T02:37:21.337Z,73.80
2022-11-03T02:40:27.059Z,73.80
2022-11-03T02:43:33.149Z,73.80
2022-11-03T02:46:37.303Z,73.80
2022-11-03T02:49:41.377Z,73.80
2022-11-03T02:52:46.940Z,73.80
2022-11-03T02:55:53.490Z,73.80
2022-11-03T02:59:00.544Z,73.80
2022-11-03T03:02:06.373Z,73.80
2022-11-03T03:05:11.330Z,73.90
2022-11-03T03:08:16.245Z,73.90
2022-11-03T03:11:36.170Z,73.80
2022-11-03T03:14:43.514Z,73.90
2022-11-03T03:17:50.731Z,73.80
2022-11-03T03:20:57.597Z,73.80
2022-11-03T03:24:02.665Z,73.90
2022-11-03T03:27:06.840Z,73.90
2022-11-03T03:30:13.370Z,73.90
2022-11-03T03:33:17.234Z,73.90
2022-11-03T03:36:21.522Z,73.90
2022-11-03T03:39:27.243Z,73.90
2022-11-03T03:42:32.180Z,73.80
2022-11-03T03:45:38.739Z,73.80
2022-11-03T03:48:42.433Z,73.90
2022-11-03T03:51:46.339Z,73.90
2022-11-03T03:54:50.303Z,73.90
2022-11-03T03:57:56.609Z,73.90
2022-11-03T04:01:05.167Z,73.90
2022-11-03T04:04:08.685Z,73.90
2022-11-03T04:07:25.494Z,74.00
2022-11-03T04:10:29.015Z,74.00
2022-11-03T04:13:45.646Z,74.10
2022-11-03T04:17:04.192Z,74.00
2022-11-03T04:20:24.803Z,74.00
2022-11-03T04:23:28.294Z,74.00
2022-11-03T04:26:32.023Z,74.00
2022-11-03T04:29:35.473Z,74.00
2022-11-03T04:32:41.351Z,74.00
2022-11-03T04:35:45.739Z,74.00
2022-11-03T04:38:49.880Z,74.00
2022-11-03T04:41:53.752Z,74.00
2022-11-03T04:44:57.433Z,74.00
2022-11-03T04:48:03.488Z,74.00
2022-11-03T04:51:12.656Z,74.00
2022-11-03T04:54:17.579Z,74.00
2022-11-03T04:57:21.087Z,74.00
2022-11-03T05:00:25.015Z,74.10
2022-11-03T05:03:32.594Z,74.00
2022-11-03T05:06:36.202Z,74.00
2022-11-03T05:09:42.790Z,74.10
2022-11-03T05:12:47.213Z,74.10
2022-11-03T05:15:51.464Z,74.10
2022-11-03T05:18:57.844Z,74.10
2022-11-03T05:22:02.246Z,74.10
2022-11-03T05:25:26.146Z,74.10
2022-11-03T05:28:32.065Z,74.10
2022-11-03T05:31:36.629Z,74.10
2022-11-03T05:34:43.611Z,74.10
2022-11-03T05:37:47.055Z,74.20
2022-11-03T05:40:51.137Z,74.10
2022-11-03T05:43:57.346Z,74.10
2022-11-03T05:47:04.474Z,74.10
2022-11-03T05:50:21.249Z,74.10
2022-11-03T05:53:32.028Z,74.10
2022-11-03T05:56:36.379Z,74.10
2022-11-03T05:59:39.888Z,74.10
2022-11-03T06:02:44.852Z,74.20
2022-11-03T06:05:50.439Z,74.20
2022-11-03T06:08:54.332Z,74.10
2022-11-03T06:11:58.643Z,74.20
2022-11-03T06:15:02.180Z,74.20
2022-11-03T06:18:14.290Z,74.30
2022-11-03T06:21:23.013Z,74.20
2022-11-03T06:24:28.012Z,74.20
2022-11-03T06:27:46.744Z,74.20
2022-11-03T06:30:51.997Z,74.30
2022-11-03T06:34:09.730Z,74.90
2022-11-03T06:37:29.375Z,74.20
2022-11-03T06:40:35.288Z,74.20
2022-11-03T06:43:41.142Z,74.30
2022-11-03T06:46:45.077Z,74.30
2022-11-03T06:49:48.928Z,74.30
2022-11-03T06:52:54.380Z,74.30
2022-11-03T06:55:57.835Z,74.30
2022-11-03T06:59:20.938Z,74.30
2022-11-03T07:02:44.645Z,74.40
2022-11-03T07:05:48.444Z,74.40
2022-11-03T07:08:55.447Z,74.30
2022-11-03T07:11:59.879Z,74.40
2022-11-03T07:18:15.449Z,74.40
2022-11-03T07:21:32.545Z,74.40
2022-11-03T07:24:40.395Z,74.40
2022-11-03T07:27:44.412Z,74.50
2022-11-03T07:30:47.866Z,74.40
2022-11-03T07:33:52.861Z,74.40
2022-11-03T07:36:58.034Z,74.50
2022-11-03T07:40:04.875Z,74.50
2022-11-03T07:43:15.645Z,74.50
2022-11-03T07:46:21.153Z,74.50
2022-11-03T07:49:28.299Z,74.50
2022-11-03T07:52:32.265Z,74.60
2022-11-03T07:55:38.008Z,74.50
2022-11-03T07:58:42.299Z,74.60
2022-11-03T08:01:47.013Z,74.60
2022-11-03T08:04:50.533Z,74.60
2022-11-03T08:07:53.992Z,74.60
2022-11-03T08:10:59.427Z,74.70
2022-11-03T08:14:03.013Z,74.60
2022-11-03T08:17:07.026Z,74.60
2022-11-03T08:20:11.456Z,74.60
2022-11-03T08:23:30.769Z,74.60
2022-11-03T08:26:36.842Z,74.60
2022-11-03T08:29:40.602Z,74.60
2022-11-03T08:32:44.132Z,74.70
2022-11-03T08:35:47.870Z,74.60
2022-11-03T08:38:51.591Z,74.60
2022-11-03T08:41:57.251Z,74.70
2022-11-03T08:45:00.684Z,74.60
2022-11-03T08:48:04.595Z,74.60
2022-11-03T08:51:09.722Z,74.60
2022-11-03T08:54:13.420Z,74.60
2022-11-03T08:57:18.842Z,74.60
2022-11-03T09:00:22.505Z,75.30
2022-11-03T09:03:29.252Z,74.60
2022-11-03T09:06:33.310Z,74.70
2022-11-03T09:13:02.613Z,74.70
2022-11-03T09:16:06.337Z,74.60
2022-11-03T09:19:09.891Z,74.70
2022-11-03T09:22:13.391Z,74.70
2022-11-03T09:25:20.114Z,74.70
2022-11-03T09:28:25.884Z,74.70
2022-11-03T09:31:30.102Z,74.60
2022-11-03T09:34:33.703Z,74.60
2022-11-03T09:37:37.406Z,74.60
2022-11-03T09:40:41.263Z,74.60
2022-11-03T09:43:46.712Z,75.20
2022-11-03T09:46:53.864Z,74.60
2022-11-03T09:50:01.579Z,74.60
2022-11-03T09:53:05.364Z,74.60
2022-11-03T09:56:11.390Z,74.60
2022-11-03T09:59:18.271Z,74.50
2022-11-03T10:02:23.768Z,74.50
2022-11-03T10:05:28.312Z,74.50
2022-11-03T10:08:32.622Z,74.80
2022-11-03T10:11:36.385Z,74.40
2022-11-03T10:14:42.522Z,74.40
2022-11-03T10:17:46.473Z,74.40
2022-11-03T10:20:49.961Z,74.40
2022-11-03T10:23:53.903Z,74.30
2022-11-03T10:26:57.863Z,74.30
2022-11-03T10:30:09.312Z,74.40
2022-11-03T10:33:26.108Z,74.30
2022-11-03T10:36:30.556Z,74.20
2022-11-03T10:39:34.228Z,74.20
2022-11-03T10:42:37.727Z,74.20
2022-11-03T10:45:43.361Z,74.70
2022-11-03T10:48:46.970Z,74.10
2022-11-03T10:51:51.539Z,74.00
2022-11-03T10:54:56.850Z,74.00
2022-11-03T10:58:00.361Z,73.90
2022-11-03T11:01:07.281Z,73.90
2022-11-03T11:04:12.097Z,73.90
2022-11-03T11:07:24.392Z,73.90
2022-11-03T11:10:29.256Z,73.80
2022-11-03T11:13:32.946Z,73.80
2022-11-03T11:16:52.643Z,73.90
2022-11-03T11:20:11.456Z,73.80
2022-11-03T11:23:30.145Z,73.80
2022-11-03T11:26:35.035Z,73.80
2022-11-03T11:29:38.539Z,73.80
2022-11-03T11:32:57.077Z,73.80
2022-11-03T11:36:09.068Z,73.90
2022-11-03T11:39:13.270Z,73.80
2022-11-03T11:42:18.095Z,73.70
2022-11-03T11:45:36.687Z,73.70
2022-11-03T11:48:40.258Z,73.70
2022-11-03T11:51:45.882Z,73.70
2022-11-03T11:54:49.378Z,73.60
2022-11-03T11:57:53.413Z,73.70
2022-11-03T12:00:58.281Z,73.60
2022-11-03T12:04:03.373Z,73.50
2022-11-03T12:07:13.445Z,73.50
2022-11-03T12:10:17.941Z,73.50
2022-11-03T12:13:36.481Z,73.50
2022-11-03T12:16:40.180Z,73.50
2022-11-03T12:19:45.085Z,73.50
2022-11-03T12:22:51.286Z,73.40
2022-11-03T12:25:54.963Z,73.40
2022-11-03T12:28:58.660Z,73.40
2022-11-03T12:32:02.103Z,73.40
2022-11-03T12:35:06.062Z,73.30
2022-11-03T12:38:11.692Z,73.40
2022-11-03T12:41:24.632Z,73.40
2022-11-03T12:44:28.601Z,73.30
2022-11-03T12:47:32.197Z,73.30
2022-11-03T12:50:37.002Z,73.20
2022-11-03T12:53:42.820Z,73.10
2022-11-03T12:56:46.485Z,73.10
2022-11-03T12:59:50.841Z,73.10
2022-11-03T13:02:54.415Z,73.00
2022-11-03T13:05:57.947Z,73.00
2022-11-03T13:09:03.331Z,72.90
2022-11-03T13:12:20.378Z,73.50
2022-11-03T13:15:24.056Z,72.90
2022-11-03T13:18:27.768Z,72.90
2022-11-03T13:21:31.381Z,72.80
2022-11-03T13:24:37.255Z,72.80
2022-11-03T13:27:40.759Z,72.80
2022-11-03T13:30:44.469Z,72.80
2022-11-03T13:33:48.169Z,72.80
2022-11-03T13:36:51.870Z,72.70
2022-11-03T13:39:57.478Z,72.80
2022-11-03T13:43:01.050Z,72.80
2022-11-03T13:46:04.753Z,72.70
2022-11-03T13:49:51.181Z,72.60
2022-11-03T13:52:32.080Z,72.60
2022-11-03T14:05:32.184Z,72.50
2022-11-03T14:08:35.891Z,72.40
2022-11-03T14:11:54.501Z,72.40
2022-11-03T14:14:58.219Z,72.40
2022-11-03T14:18:01.847Z,72.30
2022-11-03T14:21:05.558Z,72.40
2022-11-03T14:24:09.325Z,72.30
2022-11-03T14:27:15.240Z,72.30
2022-11-03T14:30:21.213Z,72.30
2022-11-03T14:33:24.729Z,72.80
2022-11-03T14:37:20.304Z,71.60
2022-11-03T14:40:36.978Z,71.80
2022-11-03T14:43:41.005Z,71.50
2022-11-03T14:46:44.753Z,71.40
2022-11-03T14:49:48.844Z,71.30
2022-11-03T14:52:58.842Z,71.30
2022-11-03T14:56:03.905Z,71.10
2022-11-03T14:59:07.814Z,71.00
2022-11-03T15:02:13.014Z,70.80
2022-11-03T15:05:29.799Z,70.70
2022-11-03T15:08:36.675Z,70.60
2022-11-03T15:11:40.851Z,70.50
2022-11-03T15:14:44.607Z,70.40
2022-11-03T15:17:48.438Z,70.30
2022-11-03T15:20:52.201Z,70.20
2022-11-03T15:27:21.814Z,70.10
2022-11-03T15:30:25.978Z,70.10
2022-11-03T15:33:29.814Z,70.10
2022-11-03T15:36:33.897Z,70.00
2022-11-03T15:39:39.885Z,70.00
2022-11-03T15:42:46.053Z,69.90
2022-11-03T15:45:50.335Z,70.00
2022-11-03T15:48:55.859Z,70.20
2022-11-03T15:51:59.716Z,70.30
2022-11-03T15:55:05.878Z,70.40
2022-11-03T15:58:09.812Z,70.50
2022-11-03T16:01:14.069Z,70.70
2022-11-03T16:04:18.051Z,70.80
2022-11-03T16:07:21.946Z,70.80
2022-11-03T16:10:27.351Z,71.00
2022-11-03T16:13:31.187Z,71.10
2022-11-03T16:16:34.929Z,71.10
2022-11-03T16:19:38.665Z,71.40
2022-11-03T16:22:42.415Z,71.50
2022-11-03T16:25:48.294Z,71.70
2022-11-03T16:28:52.564Z,71.80
2022-11-03T16:31:56.461Z,72.00
2022-11-03T16:34:59.961Z,72.10
2022-11-03T16:38:04.869Z,72.20
2022-11-03T16:41:10.937Z,72.30
2022-11-03T16:44:14.614Z,72.40
2022-11-03T16:47:18.293Z,72.60
2022-11-03T16:50:22.594Z,72.70
2022-11-03T16:53:26.572Z,72.90
2022-11-03T16:56:32.305Z,72.90
2022-11-03T16:59:35.983Z,72.80
2022-11-03T17:02:39.989Z,72.80
2022-11-03T17:05:43.554Z,73.00
2022-11-03T17:08:52.661Z,73.10
2022-11-03T17:11:59.208Z,73.10
2022-11-03T17:15:03.429Z,73.30
2022-11-03T17:18:07.540Z,73.50
2022-11-03T17:21:11.594Z,73.60
2022-11-03T17:24:15.162Z,73.70
2022-11-03T17:27:23.315Z,73.80
2022-11-03T17:30:28.811Z,73.80
2022-11-03T17:33:32.603Z,73.90
2022-11-03T17:36:39.225Z,74.10
2022-11-03T17:39:42.760Z,74.20
2022-11-03T17:42:49.159Z,74.30
2022-11-03T17:45:53.255Z,74.20
2022-11-03T17:48:57.095Z,74.30
2022-11-03T17:52:01.021Z,74.50
2022-11-03T17:55:05.848Z,74.60
2022-11-03T17:58:12.780Z,74.60
2022-11-03T18:01:21.708Z,74.60
2022-11-03T18:04:25.975Z,74.80
2022-11-03T18:07:30.936Z,74.90
2022-11-03T18:10:39.800Z,75.00
2022-11-03T18:13:46.290Z,75.20
2022-11-03T18:16:51.033Z,75.30
2022-11-03T18:19:54.856Z,75.40
2022-11-03T18:23:13.730Z,75.50
2022-11-03T18:26:25.013Z,75.70
2022-11-03T18:29:30.658Z,75.70
2022-11-03T18:32:35.816Z,75.80
2022-11-03T18:35:42.306Z,75.90
2022-11-03T18:38:47.801Z,76.00
2022-11-03T18:41:51.490Z,76.10
2022-11-03T18:45:01.476Z,76.20
2022-11-03T18:48:07.284Z,76.20
2022-11-03T18:51:11.176Z,76.40
2022-11-03T18:54:16.108Z,76.40
2022-11-03T18:57:24.729Z,76.50
2022-11-03T19:00:31.155Z,76.60
2022-11-03T19:03:35.079Z,76.60
2022-11-03T19:06:39.328Z,77.30
2022-11-03T19:09:45.886Z,76.80
2022-11-03T19:12:49.935Z,76.90
2022-11-03T19:15:57.693Z,76.90
2022-11-03T19:19:01.682Z,77.00
2022-11-03T19:22:06.652Z,77.00
2022-11-03T19:25:11.051Z,77.00
2022-11-03T19:28:18.465Z,76.90
2022-11-03T19:31:28.206Z,77.10
2022-11-03T19:34:34.478Z,77.20
2022-11-03T19:37:38.304Z,77.30
2022-11-03T19:41:03.968Z,77.30
2022-11-03T19:44:12.379Z,77.40
2022-11-03T19:47:19.278Z,77.40
2022-11-03T19:50:26.314Z,77.50
2022-11-03T19:53:32.572Z,77.50
2022-11-03T19:56:36.568Z,77.60
2022-11-03T19:59:40.546Z,77.60
2022-11-03T20:02:47.147Z,77.70
2022-11-03T20:05:53.873Z,77.50
2022-11-03T20:08:58.274Z,77.60
2022-11-03T20:12:06.881Z,77.70
2022-11-03T20:15:17.516Z,77.90
2022-11-03T20:18:23.632Z,77.90
2022-11-03T20:21:34.065Z,77.90
2022-11-03T20:24:38.728Z,78.00
2022-11-03T20:27:42.460Z,78.10
2022-11-03T20:30:46.625Z,78.10
2022-11-03T20:33:53.155Z,78.20
2022-11-03T20:36:58.963Z,78.20
2022-11-03T20:40:05.750Z,78.30
2022-11-03T20:43:25.173Z,78.30
2022-11-03T20:46:31.565Z,78.40
2022-11-03T20:49:37.662Z,78.40
2022-11-03T20:52:43.460Z,78.50
2022-11-03T20:55:47.478Z,78.50
2022-11-03T20:58:50.993Z,78.60
2022-11-03T21:01:56.047Z,78.50
2022-11-03T21:05:02.276Z,78.40
2022-11-03T21:08:06.423Z,78.50
2022-11-03T21:11:26.752Z,78.60
2022-11-03T21:14:32.458Z,78.70
2022-11-03T21:17:49.313Z,78.70
2022-11-03T21:20:55.381Z,78.70
2022-11-03T21:23:59.082Z,78.70
2022-11-03T21:27:02.825Z,78.90
2022-11-03T21:30:08.231Z,78.80
2022-11-03T21:33:13.342Z,78.90
2022-11-03T21:36:19.002Z,78.90
2022-11-03T21:39:22.710Z,79.00
2022-11-03T21:42:39.543Z,79.10
2022-11-03T21:45:43.678Z,79.00
2022-11-03T21:49:00.471Z,79.00
2022-11-03T21:52:07.002Z,79.10
2022-11-03T21:55:11.491Z,79.20
2022-11-03T21:58:15.673Z,79.20
2022-11-03T22:01:19.480Z,79.20
2022-11-03T22:04:23.746Z,79.20
2022-11-03T22:07:32.901Z,79.20
2022-11-03T22:10:39.822Z,79.10
2022-11-03T22:13:43.505Z,79.20
2022-11-03T22:16:45.949Z,79.30
2022-11-03T22:20:02.784Z,79.30
2022-11-03T22:23:22.497Z,79.30
2022-11-03T22:26:39.931Z,79.40
2022-11-03T22:29:56.794Z,79.40
2022-11-03T22:33:00.957Z,79.40
2022-11-03T22:36:26.515Z,79.40
2022-11-03T22:39:45.297Z,79.50
2022-11-03T22:43:01.896Z,79.40
2022-11-03T22:46:06.222Z,79.50
2022-11-03T22:49:09.952Z,80.10
2022-11-03T22:52:14.164Z,79.60
2022-11-03T22:55:20.224Z,79.60
2022-11-03T22:58:29.393Z,79.60
2022-11-03T23:01:34.565Z,79.60
2022-11-03T23:04:38.375Z,79.60
2022-11-03T23:07:42.567Z,79.70
2022-11-03T23:10:48.257Z,79.70
2022-11-03T23:13:57.154Z,79.80
2022-11-03T23:17:00.887Z,79.90
2022-11-03T23:20:17.801Z,79.90
2022-11-03T23:23:34.427Z,79.90
2022-11-03T23:26:40.807Z,79.90
2022-11-03T23:29:45.044Z,80.00
2022-11-03T23:32:48.709Z,79.90
2022-11-03T23:35:52.895Z,79.90
2022-11-03T23:38:57.723Z,79.90
2022-11-03T23:42:03.411Z,80.00
2022-11-03T23:45:21.664Z,80.00
2022-11-03T23:48:38.518Z,80.00
2022-11-03T23:51:42.557Z,80.00
2022-11-03T23:54:46.741Z,80.00
2022-11-03T23:58:05.685Z,80.00
